Terminal Aerodrome Forecast
Issued by NWS King Salmon, AK

Home | Current Version | Previous Version | Text Only | Print | Product List | Glossary On
Versions: 1 2 3 4 5 6 7 8 9 10 11 12 13 14 15 16 17 18 19 20 21
000
FTAK31 PANC 251823 AAA
TAFAKN
TAF AMD
PAKN 251823Z 2518/2618 18020G30KT P6SM VCSH FEW050 SCT080 BKN100
      TEMPO 2518/2521 18020KT P6SM -SHRA SCT035 BKN050 OVC080
     FM252100 19020G30KT P6SM -SHRA SCT035 OVC050
     FM260300 19012G22KT P6SM -SHRA SCT035 OVC050
     FM260700 18012KT P6SM -SHRA SCT035 BKN050
     FM261200 19010KT P6SM VCSH SCT040 BKN060=

USA.gov is the U.S. government's official web portal to all federal, state and local government web resources and services.